sensor_id;sensor_type;location;lat;lon;timestamp;P1;durP1;ratioP1;P2;durP2;ratioP2
68923;SDS011;55961;52.156;20.942;2023-01-05T00:01:48;8.23;;;3.88;;
68923;SDS011;55961;52.156;20.942;2023-01-05T00:04:14;7.22;;;4.00;;
68923;SDS011;55961;52.156;20.942;2023-01-05T00:06:40;8.03;;;4.10;;
68923;SDS011;55961;52.156;20.942;2023-01-05T00:09:07;7.80;;;3.85;;
68923;SDS011;55961;52.156;20.942;2023-01-05T00:11:35;9.45;;;4.22;;
68923;SDS011;55961;52.156;20.942;2023-01-05T00:14:20;8.45;;;3.75;;
68923;SDS011;55961;52.156;20.942;2023-01-05T00:17:11;6.78;;;3.10;;
68923;SDS011;55961;52.156;20.942;2023-01-05T00:19:58;12.60;;;5.03;;
68923;SDS011;55961;52.156;20.942;2023-01-05T00:22:46;8.15;;;3.80;;
68923;SDS011;55961;52.156;20.942;2023-01-05T00:25:15;9.50;;;4.28;;
68923;SDS011;55961;52.156;20.942;2023-01-05T00:27:42;8.00;;;4.10;;
68923;SDS011;55961;52.156;20.942;2023-01-05T00:30:11;9.75;;;4.47;;
68923;SDS011;55961;52.156;20.942;2023-01-05T00:32:39;7.50;;;3.70;;
68923;SDS011;55961;52.156;20.942;2023-01-05T00:35:06;5.78;;;2.90;;
68923;SDS011;55961;52.156;20.942;2023-01-05T00:37:32;8.10;;;4.38;;
68923;SDS011;55961;52.156;20.942;2023-01-05T00:39:59;6.63;;;3.10;;
68923;SDS011;55961;52.156;20.942;2023-01-05T00:42:25;8.45;;;4.45;;
68923;SDS011;55961;52.156;20.942;2023-01-05T00:44:52;8.30;;;4.23;;
68923;SDS011;55961;52.156;20.942;2023-01-05T00:47:18;7.60;;;4.20;;
68923;SDS011;55961;52.156;20.942;2023-01-05T00:49:44;7.90;;;3.78;;
68923;SDS011;55961;52.156;20.942;2023-01-05T00:52:10;6.63;;;3.35;;
68923;SDS011;55961;52.156;20.942;2023-01-05T00:54:35;7.27;;;3.80;;
68923;SDS011;55961;52.156;20.942;2023-01-05T00:57:01;7.97;;;3.78;;
68923;SDS011;55961;52.156;20.942;2023-01-05T00:59:27;6.72;;;3.33;;
68923;SDS011;55961;52.156;20.942;2023-01-05T01:01:54;7.30;;;3.92;;
68923;SDS011;55961;52.156;20.942;2023-01-05T01:04:19;6.33;;;2.97;;
68923;SDS011;55961;52.156;20.942;2023-01-05T01:06:46;6.22;;;3.40;;
68923;SDS011;55961;52.156;20.942;2023-01-05T01:09:12;7.90;;;3.97;;
68923;SDS011;55961;52.156;20.942;2023-01-05T01:11:39;9.18;;;4.03;;
68923;SDS011;55961;52.156;20.942;2023-01-05T01:14:05;7.93;;;4.53;;
68923;SDS011;55961;52.156;20.942;2023-01-05T01:16:32;7.32;;;3.83;;
68923;SDS011;55961;52.156;20.942;2023-01-05T01:18:58;6.53;;;2.92;;
68923;SDS011;55961;52.156;20.942;2023-01-05T01:21:24;8.00;;;4.03;;
68923;SDS011;55961;52.156;20.942;2023-01-05T01:23:50;6.70;;;2.87;;
68923;SDS011;55961;52.156;20.942;2023-01-05T01:26:17;7.20;;;3.22;;
68923;SDS011;55961;52.156;20.942;2023-01-05T01:28:45;6.97;;;3.05;;
68923;SDS011;55961;52.156;20.942;2023-01-05T01:31:12;8.85;;;4.68;;
68923;SDS011;55961;52.156;20.942;2023-01-05T01:33:38;8.83;;;3.87;;
68923;SDS011;55961;52.156;20.942;2023-01-05T01:36:05;6.50;;;3.20;;
68923;SDS011;55961;52.156;20.942;2023-01-05T01:38:32;7.07;;;3.58;;
68923;SDS011;55961;52.156;20.942;2023-01-05T01:40:58;6.15;;;2.85;;
68923;SDS011;55961;52.156;20.942;2023-01-05T01:46:11;5.43;;;2.60;;
68923;SDS011;55961;52.156;20.942;2023-01-05T01:48:38;8.15;;;3.70;;
68923;SDS011;55961;52.156;20.942;2023-01-05T01:51:45;5.75;;;2.55;;
68923;SDS011;55961;52.156;20.942;2023-01-05T01:54:14;10.32;;;3.70;;
68923;SDS011;55961;52.156;20.942;2023-01-05T01:56:43;8.40;;;3.65;;
68923;SDS011;55961;52.156;20.942;2023-01-05T01:59:15;5.77;;;2.70;;
68923;SDS011;55961;52.156;20.942;2023-01-05T02:01:42;7.38;;;2.88;;
68923;SDS011;55961;52.156;20.942;2023-01-05T02:04:08;5.05;;;2.70;;
68923;SDS011;55961;52.156;20.942;2023-01-05T02:06:36;4.70;;;2.33;;
68923;SDS011;55961;52.156;20.942;2023-01-05T02:09:02;6.47;;;3.10;;
68923;SDS011;55961;52.156;20.942;2023-01-05T02:19:43;6.10;;;2.40;;
68923;SDS011;55961;52.156;20.942;2023-01-05T02:22:40;5.28;;;2.47;;
68923;SDS011;55961;52.156;20.942;2023-01-05T02:34:16;5.27;;;1.83;;
68923;SDS011;55961;52.156;20.942;2023-01-05T02:39:20;3.38;;;1.38;;
68923;SDS011;55961;52.156;20.942;2023-01-05T02:42:00;4.70;;;2.22;;
68923;SDS011;55961;52.156;20.942;2023-01-05T02:44:30;4.25;;;1.63;;
68923;SDS011;55961;52.156;20.942;2023-01-05T02:46:58;4.83;;;1.40;;
68923;SDS011;55961;52.156;20.942;2023-01-05T02:49:28;3.20;;;1.40;;
68923;SDS011;55961;52.156;20.942;2023-01-05T02:51:57;4.03;;;1.75;;
68923;SDS011;55961;52.156;20.942;2023-01-05T02:54:34;6.10;;;2.55;;
68923;SDS011;55961;52.156;20.942;2023-01-05T02:57:08;3.92;;;1.40;;
68923;SDS011;55961;52.156;20.942;2023-01-05T02:59:39;3.97;;;1.50;;
68923;SDS011;55961;52.156;20.942;2023-01-05T03:02:12;5.57;;;2.50;;
68923;SDS011;55961;52.156;20.942;2023-01-05T03:04:45;6.68;;;2.58;;
68923;SDS011;55961;52.156;20.942;2023-01-05T03:07:19;5.07;;;1.90;;
68923;SDS011;55961;52.156;20.942;2023-01-05T03:09:53;3.25;;;1.33;;
68923;SDS011;55961;52.156;20.942;2023-01-05T03:15:16;4.65;;;1.35;;
68923;SDS011;55961;52.156;20.942;2023-01-05T03:17:54;5.25;;;2.42;;
68923;SDS011;55961;52.156;20.942;2023-01-05T03:20:43;6.00;;;2.90;;
68923;SDS011;55961;52.156;20.942;2023-01-05T03:23:12;4.40;;;1.50;;
68923;SDS011;55961;52.156;20.942;2023-01-05T03:25:59;4.13;;;1.83;;
68923;SDS011;55961;52.156;20.942;2023-01-05T03:28:48;4.85;;;1.73;;
68923;SDS011;55961;52.156;20.942;2023-01-05T03:31:38;5.22;;;2.00;;
68923;SDS011;55961;52.156;20.942;2023-01-05T03:34:32;3.85;;;1.73;;
68923;SDS011;55961;52.156;20.942;2023-01-05T03:37:30;5.00;;;2.25;;
68923;SDS011;55961;52.156;20.942;2023-01-05T03:40:03;6.03;;;2.10;;
68923;SDS011;55961;52.156;20.942;2023-01-05T03:42:33;4.20;;;1.73;;
68923;SDS011;55961;52.156;20.942;2023-01-05T03:44:59;4.10;;;1.75;;
68923;SDS011;55961;52.156;20.942;2023-01-05T03:47:26;3.70;;;1.77;;
68923;SDS011;55961;52.156;20.942;2023-01-05T03:49:52;4.80;;;1.60;;
68923;SDS011;55961;52.156;20.942;2023-01-05T03:52:18;3.95;;;1.60;;
68923;SDS011;55961;52.156;20.942;2023-01-05T03:54:43;2.70;;;0.80;;
68923;SDS011;55961;52.156;20.942;2023-01-05T03:57:09;3.67;;;1.00;;
68923;SDS011;55961;52.156;20.942;2023-01-05T03:59:35;3.25;;;1.33;;
68923;SDS011;55961;52.156;20.942;2023-01-05T04:02:01;3.38;;;1.38;;
68923;SDS011;55961;52.156;20.942;2023-01-05T04:04:27;3.23;;;1.00;;
68923;SDS011;55961;52.156;20.942;2023-01-05T04:06:53;4.85;;;1.42;;
68923;SDS011;55961;52.156;20.942;2023-01-05T04:09:19;3.65;;;1.20;;
68923;SDS011;55961;52.156;20.942;2023-01-05T04:11:45;2.50;;;0.93;;
68923;SDS011;55961;52.156;20.942;2023-01-05T04:14:10;3.28;;;1.25;;
68923;SDS011;55961;52.156;20.942;2023-01-05T04:16:36;2.63;;;0.65;;
68923;SDS011;55961;52.156;20.942;2023-01-05T04:19:03;2.53;;;1.13;;
68923;SDS011;55961;52.156;20.942;2023-01-05T04:21:29;3.20;;;1.33;;
68923;SDS011;55961;52.156;20.942;2023-01-05T04:23:55;3.67;;;1.08;;
68923;SDS011;55961;52.156;20.942;2023-01-05T04:26:21;4.32;;;1.00;;
68923;SDS011;55961;52.156;20.942;2023-01-05T04:28:47;3.70;;;1.03;;
68923;SDS011;55961;52.156;20.942;2023-01-05T04:31:13;3.35;;;0.90;;
68923;SDS011;55961;52.156;20.942;2023-01-05T04:33:39;2.00;;;0.70;;
68923;SDS011;55961;52.156;20.942;2023-01-05T04:36:05;4.25;;;1.02;;
68923;SDS011;55961;52.156;20.942;2023-01-05T04:38:32;3.17;;;0.95;;
68923;SDS011;55961;52.156;20.942;2023-01-05T04:40:58;2.28;;;0.63;;
68923;SDS011;55961;52.156;20.942;2023-01-05T04:43:23;4.53;;;0.93;;
68923;SDS011;55961;52.156;20.942;2023-01-05T04:45:49;2.58;;;0.80;;
68923;SDS011;55961;52.156;20.942;2023-01-05T04:48:15;4.53;;;1.67;;
68923;SDS011;55961;52.156;20.942;2023-01-05T04:50:42;3.15;;;1.05;;
68923;SDS011;55961;52.156;20.942;2023-01-05T04:53:08;4.27;;;1.70;;
68923;SDS011;55961;52.156;20.942;2023-01-05T04:55:34;3.20;;;1.50;;
68923;SDS011;55961;52.156;20.942;2023-01-05T04:58:00;4.47;;;1.10;;
68923;SDS011;55961;52.156;20.942;2023-01-05T05:00:26;4.13;;;1.00;;
68923;SDS011;55961;52.156;20.942;2023-01-05T05:02:54;2.53;;;0.95;;
68923;SDS011;55961;52.156;20.942;2023-01-05T05:05:20;3.67;;;1.52;;
68923;SDS011;55961;52.156;20.942;2023-01-05T05:07:46;4.15;;;1.60;;
68923;SDS011;55961;52.156;20.942;2023-01-05T05:10:12;3.70;;;1.00;;
68923;SDS011;55961;52.156;20.942;2023-01-05T05:12:41;4.80;;;1.00;;
68923;SDS011;55961;52.156;20.942;2023-01-05T05:15:08;2.45;;;1.10;;
68923;SDS011;55961;52.156;20.942;2023-01-05T05:17:34;4.10;;;1.75;;
68923;SDS011;55961;52.156;20.942;2023-01-05T05:20:00;2.75;;;1.02;;
68923;SDS011;55961;52.156;20.942;2023-01-05T05:22:26;3.13;;;1.30;;
68923;SDS011;55961;52.156;20.942;2023-01-05T05:24:52;3.85;;;1.63;;
68923;SDS011;55961;52.156;20.942;2023-01-05T05:27:18;2.55;;;1.05;;
68923;SDS011;55961;52.156;20.942;2023-01-05T05:29:44;4.33;;;1.30;;
68923;SDS011;55961;52.156;20.942;2023-01-05T05:32:10;2.70;;;1.00;;
68923;SDS011;55961;52.156;20.942;2023-01-05T05:34:36;3.22;;;0.93;;
68923;SDS011;55961;52.156;20.942;2023-01-05T05:37:02;3.03;;;0.77;;
68923;SDS011;55961;52.156;20.942;2023-01-05T05:39:28;1.27;;;0.40;;
68923;SDS011;55961;52.156;20.942;2023-01-05T05:41:54;3.38;;;0.90;;
68923;SDS011;55961;52.156;20.942;2023-01-05T05:44:20;3.60;;;0.50;;
68923;SDS011;55961;52.156;20.942;2023-01-05T05:46:45;2.47;;;0.60;;
68923;SDS011;55961;52.156;20.942;2023-01-05T05:49:11;1.45;;;0.30;;
68923;SDS011;55961;52.156;20.942;2023-01-05T05:51:37;2.03;;;0.60;;
68923;SDS011;55961;52.156;20.942;2023-01-05T05:54:03;1.83;;;0.30;;
68923;SDS011;55961;52.156;20.942;2023-01-05T05:56:29;2.72;;;0.90;;
68923;SDS011;55961;52.156;20.942;2023-01-05T05:58:55;2.63;;;0.50;;
68923;SDS011;55961;52.156;20.942;2023-01-05T06:01:21;2.20;;;0.40;;
68923;SDS011;55961;52.156;20.942;2023-01-05T06:03:47;2.83;;;0.40;;
68923;SDS011;55961;52.156;20.942;2023-01-05T06:06:13;2.45;;;0.55;;
68923;SDS011;55961;52.156;20.942;2023-01-05T06:08:39;3.03;;;0.70;;
68923;SDS011;55961;52.156;20.942;2023-01-05T06:11:04;5.03;;;1.70;;
68923;SDS011;55961;52.156;20.942;2023-01-05T06:13:32;1.75;;;0.47;;
68923;SDS011;55961;52.156;20.942;2023-01-05T06:15:58;3.20;;;0.88;;
68923;SDS011;55961;52.156;20.942;2023-01-05T06:18:24;1.55;;;0.40;;
68923;SDS011;55961;52.156;20.942;2023-01-05T06:20:52;2.60;;;0.60;;
68923;SDS011;55961;52.156;20.942;2023-01-05T06:23:18;3.17;;;0.75;;
68923;SDS011;55961;52.156;20.942;2023-01-05T06:25:44;2.05;;;0.50;;
68923;SDS011;55961;52.156;20.942;2023-01-05T06:28:11;3.33;;;0.80;;
68923;SDS011;55961;52.156;20.942;2023-01-05T06:30:36;2.30;;;0.70;;
68923;SDS011;55961;52.156;20.942;2023-01-05T06:33:02;3.13;;;0.93;;
68923;SDS011;55961;52.156;20.942;2023-01-05T06:35:28;2.72;;;0.88;;
68923;SDS011;55961;52.156;20.942;2023-01-05T06:37:54;2.70;;;0.77;;
68923;SDS011;55961;52.156;20.942;2023-01-05T06:40:20;4.03;;;0.97;;
68923;SDS011;55961;52.156;20.942;2023-01-05T06:42:46;4.30;;;0.90;;
68923;SDS011;55961;52.156;20.942;2023-01-05T06:45:13;2.83;;;0.57;;
68923;SDS011;55961;52.156;20.942;2023-01-05T06:47:40;4.53;;;0.88;;
68923;SDS011;55961;52.156;20.942;2023-01-05T06:50:06;4.07;;;0.80;;
68923;SDS011;55961;52.156;20.942;2023-01-05T06:52:33;3.53;;;0.88;;
68923;SDS011;55961;52.156;20.942;2023-01-05T06:55:02;3.40;;;0.80;;
68923;SDS011;55961;52.156;20.942;2023-01-05T06:57:28;3.47;;;1.30;;
68923;SDS011;55961;52.156;20.942;2023-01-05T06:59:54;5.67;;;1.37;;
68923;SDS011;55961;52.156;20.942;2023-01-05T07:02:20;3.88;;;1.30;;
68923;SDS011;55961;52.156;20.942;2023-01-05T07:04:46;3.65;;;1.30;;
68923;SDS011;55961;52.156;20.942;2023-01-05T07:07:12;4.38;;;1.20;;
68923;SDS011;55961;52.156;20.942;2023-01-05T07:09:39;4.70;;;1.30;;
68923;SDS011;55961;52.156;20.942;2023-01-05T07:12:05;2.88;;;1.00;;
68923;SDS011;55961;52.156;20.942;2023-01-05T07:14:31;4.45;;;1.27;;
68923;SDS011;55961;52.156;20.942;2023-01-05T07:16:57;4.28;;;1.40;;
68923;SDS011;55961;52.156;20.942;2023-01-05T07:19:24;4.07;;;1.60;;
68923;SDS011;55961;52.156;20.942;2023-01-05T07:21:50;5.33;;;1.53;;
68923;SDS011;55961;52.156;20.942;2023-01-05T07:24:16;4.90;;;1.60;;
68923;SDS011;55961;52.156;20.942;2023-01-05T07:26:42;4.93;;;1.30;;
68923;SDS011;55961;52.156;20.942;2023-01-05T07:29:08;4.47;;;1.47;;
68923;SDS011;55961;52.156;20.942;2023-01-05T07:31:34;4.10;;;1.50;;
68923;SDS011;55961;52.156;20.942;2023-01-05T07:34:00;3.22;;;1.05;;
68923;SDS011;55961;52.156;20.942;2023-01-05T07:36:26;4.77;;;1.20;;
68923;SDS011;55961;52.156;20.942;2023-01-05T07:38:52;5.47;;;1.27;;
68923;SDS011;55961;52.156;20.942;2023-01-05T07:41:18;3.88;;;1.30;;
68923;SDS011;55961;52.156;20.942;2023-01-05T07:43:46;4.20;;;1.23;;
68923;SDS011;55961;52.156;20.942;2023-01-05T07:46:13;3.05;;;1.27;;
68923;SDS011;55961;52.156;20.942;2023-01-05T07:48:40;4.22;;;1.20;;
68923;SDS011;55961;52.156;20.942;2023-01-05T07:51:06;4.57;;;1.58;;
68923;SDS011;55961;52.156;20.942;2023-01-05T07:53:32;6.53;;;1.50;;
68923;SDS011;55961;52.156;20.942;2023-01-05T07:56:01;10.50;;;1.70;;
68923;SDS011;55961;52.156;20.942;2023-01-05T07:58:28;4.00;;;1.48;;
68923;SDS011;55961;52.156;20.942;2023-01-05T08:00:55;4.32;;;1.02;;
68923;SDS011;55961;52.156;20.942;2023-01-05T08:03:21;3.72;;;1.30;;
68923;SDS011;55961;52.156;20.942;2023-01-05T08:05:47;4.33;;;1.47;;
68923;SDS011;55961;52.156;20.942;2023-01-05T08:08:13;3.78;;;1.30;;
68923;SDS011;55961;52.156;20.942;2023-01-05T08:10:40;2.90;;;1.15;;
68923;SDS011;55961;52.156;20.942;2023-01-05T08:13:07;7.78;;;1.65;;
68923;SDS011;55961;52.156;20.942;2023-01-05T08:15:54;5.03;;;1.70;;
68923;SDS011;55961;52.156;20.942;2023-01-05T08:18:21;7.50;;;1.67;;
68923;SDS011;55961;52.156;20.942;2023-01-05T08:20:51;4.57;;;1.50;;
68923;SDS011;55961;52.156;20.942;2023-01-05T08:23:19;8.50;;;1.85;;
68923;SDS011;55961;52.156;20.942;2023-01-05T08:25:45;6.35;;;1.40;;
68923;SDS011;55961;52.156;20.942;2023-01-05T08:28:11;7.20;;;1.50;;
68923;SDS011;55961;52.156;20.942;2023-01-05T08:30:37;5.13;;;1.30;;
68923;SDS011;55961;52.156;20.942;2023-01-05T08:33:02;3.63;;;1.10;;
68923;SDS011;55961;52.156;20.942;2023-01-05T08:35:30;3.67;;;1.08;;
68923;SDS011;55961;52.156;20.942;2023-01-05T08:37:55;3.90;;;1.33;;
68923;SDS011;55961;52.156;20.942;2023-01-05T08:40:22;4.18;;;1.40;;
68923;SDS011;55961;52.156;20.942;2023-01-05T08:42:49;5.47;;;1.30;;
68923;SDS011;55961;52.156;20.942;2023-01-05T08:45:16;7.43;;;2.07;;
68923;SDS011;55961;52.156;20.942;2023-01-05T08:47:42;7.93;;;1.60;;
68923;SDS011;55961;52.156;20.942;2023-01-05T08:50:09;5.13;;;1.52;;
68923;SDS011;55961;52.156;20.942;2023-01-05T08:52:36;6.03;;;1.83;;
68923;SDS011;55961;52.156;20.942;2023-01-05T08:55:03;6.07;;;1.77;;
68923;SDS011;55961;52.156;20.942;2023-01-05T08:57:30;4.87;;;1.57;;
68923;SDS011;55961;52.156;20.942;2023-01-05T08:59:56;7.70;;;1.65;;
68923;SDS011;55961;52.156;20.942;2023-01-05T09:02:22;3.95;;;1.08;;
68923;SDS011;55961;52.156;20.942;2023-01-05T09:04:48;5.57;;;1.52;;
68923;SDS011;55961;52.156;20.942;2023-01-05T09:07:14;7.73;;;1.50;;
68923;SDS011;55961;52.156;20.942;2023-01-05T09:09:40;8.73;;;2.08;;
68923;SDS011;55961;52.156;20.942;2023-01-05T09:12:05;6.65;;;1.73;;
68923;SDS011;55961;52.156;20.942;2023-01-05T09:14:32;5.20;;;1.63;;
68923;SDS011;55961;52.156;20.942;2023-01-05T09:16:58;4.43;;;1.35;;
68923;SDS011;55961;52.156;20.942;2023-01-05T09:19:24;5.00;;;1.50;;
68923;SDS011;55961;52.156;20.942;2023-01-05T09:21:50;6.20;;;1.73;;
68923;SDS011;55961;52.156;20.942;2023-01-05T09:24:17;5.43;;;2.10;;
68923;SDS011;55961;52.156;20.942;2023-01-05T09:26:44;7.85;;;1.73;;
68923;SDS011;55961;52.156;20.942;2023-01-05T09:29:10;8.02;;;1.80;;
68923;SDS011;55961;52.156;20.942;2023-01-05T09:31:38;5.30;;;2.25;;
68923;SDS011;55961;52.156;20.942;2023-01-05T09:34:05;7.70;;;2.53;;
68923;SDS011;55961;52.156;20.942;2023-01-05T09:36:31;3.72;;;1.15;;
68923;SDS011;55961;52.156;20.942;2023-01-05T09:38:57;8.82;;;2.05;;
68923;SDS011;55961;52.156;20.942;2023-01-05T09:41:27;6.30;;;1.67;;
68923;SDS011;55961;52.156;20.942;2023-01-05T09:44:05;6.32;;;1.83;;
68923;SDS011;55961;52.156;20.942;2023-01-05T09:46:39;4.57;;;1.67;;
68923;SDS011;55961;52.156;20.942;2023-01-05T09:49:12;5.35;;;2.13;;
68923;SDS011;55961;52.156;20.942;2023-01-05T09:51:39;7.15;;;2.10;;
68923;SDS011;55961;52.156;20.942;2023-01-05T09:54:08;5.00;;;1.50;;
68923;SDS011;55961;52.156;20.942;2023-01-05T09:56:40;6.72;;;1.58;;
68923;SDS011;55961;52.156;20.942;2023-01-05T10:01:40;3.72;;;1.27;;
68923;SDS011;55961;52.156;20.942;2023-01-05T10:04:15;5.45;;;1.20;;
68923;SDS011;55961;52.156;20.942;2023-01-05T10:06:49;4.20;;;1.37;;
68923;SDS011;55961;52.156;20.942;2023-01-05T10:09:20;7.30;;;2.20;;
68923;SDS011;55961;52.156;20.942;2023-01-05T10:14:56;6.18;;;1.27;;
68923;SDS011;55961;52.156;20.942;2023-01-05T10:17:27;5.35;;;1.88;;
68923;SDS011;55961;52.156;20.942;2023-01-05T10:19:56;9.80;;;1.83;;
68923;SDS011;55961;52.156;20.942;2023-01-05T10:25:19;7.32;;;1.40;;
68923;SDS011;55961;52.156;20.942;2023-01-05T10:28:00;5.13;;;1.73;;
68923;SDS011;55961;52.156;20.942;2023-01-05T10:30:38;7.88;;;1.52;;
68923;SDS011;55961;52.156;20.942;2023-01-05T10:33:14;7.13;;;1.20;;
68923;SDS011;55961;52.156;20.942;2023-01-05T10:36:18;6.65;;;1.70;;
68923;SDS011;55961;52.156;20.942;2023-01-05T10:41:20;7.47;;;2.17;;
68923;SDS011;55961;52.156;20.942;2023-01-05T10:43:57;5.22;;;1.13;;
68923;SDS011;55961;52.156;20.942;2023-01-05T10:46:40;5.50;;;1.10;;
68923;SDS011;55961;52.156;20.942;2023-01-05T10:49:14;8.65;;;1.98;;
68923;SDS011;55961;52.156;20.942;2023-01-05T10:51:48;10.95;;;1.98;;
68923;SDS011;55961;52.156;20.942;2023-01-05T10:54:19;8.55;;;2.33;;
68923;SDS011;55961;52.156;20.942;2023-01-05T10:57:45;8.20;;;1.83;;
68923;SDS011;55961;52.156;20.942;2023-01-05T11:00:03;8.70;;;2.50;;
68923;SDS011;55961;52.156;20.942;2023-01-05T11:02:33;10.68;;;2.47;;
68923;SDS011;55961;52.156;20.942;2023-01-05T11:05:06;7.05;;;1.90;;
68923;SDS011;55961;52.156;20.942;2023-01-05T11:08:03;8.85;;;2.17;;
68923;SDS011;55961;52.156;20.942;2023-01-05T11:10:33;6.22;;;1.95;;
68923;SDS011;55961;52.156;20.942;2023-01-05T11:16:02;7.18;;;2.15;;
68923;SDS011;55961;52.156;20.942;2023-01-05T11:18:36;10.23;;;2.55;;
68923;SDS011;55961;52.156;20.942;2023-01-05T11:21:10;10.80;;;3.22;;
68923;SDS011;55961;52.156;20.942;2023-01-05T11:23:45;6.32;;;1.48;;
68923;SDS011;55961;52.156;20.942;2023-01-05T11:26:19;6.70;;;1.67;;
68923;SDS011;55961;52.156;20.942;2023-01-05T11:29:07;6.07;;;1.20;;
68923;SDS011;55961;52.156;20.942;2023-01-05T11:31:43;7.63;;;1.52;;
68923;SDS011;55961;52.156;20.942;2023-01-05T11:34:14;5.72;;;1.27;;
68923;SDS011;55961;52.156;20.942;2023-01-05T11:36:58;7.97;;;1.42;;
68923;SDS011;55961;52.156;20.942;2023-01-05T11:39:37;7.13;;;1.27;;
68923;SDS011;55961;52.156;20.942;2023-01-05T11:42:13;12.98;;;3.08;;
68923;SDS011;55961;52.156;20.942;2023-01-05T11:44:50;6.20;;;1.35;;
68923;SDS011;55961;52.156;20.942;2023-01-05T11:49:48;5.82;;;1.13;;
68923;SDS011;55961;52.156;20.942;2023-01-05T11:57:55;5.10;;;1.58;;
68923;SDS011;55961;52.156;20.942;2023-01-05T12:17:11;5.22;;;1.50;;
68923;SDS011;55961;52.156;20.942;2023-01-05T12:30:14;5.23;;;1.37;;
68923;SDS011;55961;52.156;20.942;2023-01-05T12:41:48;7.60;;;1.42;;
68923;SDS011;55961;52.156;20.942;2023-01-05T13:17:57;5.72;;;0.75;;
68923;SDS011;55961;52.156;20.942;2023-01-05T13:20:25;4.97;;;1.00;;
68923;SDS011;55961;52.156;20.942;2023-01-05T13:22:58;4.05;;;0.80;;
68923;SDS011;55961;52.156;20.942;2023-01-05T13:25:29;3.08;;;0.60;;
68923;SDS011;55961;52.156;20.942;2023-01-05T13:28:02;3.53;;;0.50;;
68923;SDS011;55961;52.156;20.942;2023-01-05T13:30:30;5.82;;;1.13;;
68923;SDS011;55961;52.156;20.942;2023-01-05T13:33:23;3.80;;;0.73;;
68923;SDS011;55961;52.156;20.942;2023-01-05T13:41:38;5.05;;;1.08;;
68923;SDS011;55961;52.156;20.942;2023-01-05T13:47:38;7.73;;;1.20;;
68923;SDS011;55961;52.156;20.942;2023-01-05T13:50:01;10.00;;;1.20;;
68923;SDS011;55961;52.156;20.942;2023-01-05T13:52:43;5.60;;;0.70;;
68923;SDS011;55961;52.156;20.942;2023-01-05T13:55:28;4.28;;;0.60;;
68923;SDS011;55961;52.156;20.942;2023-01-05T13:57:58;8.05;;;2.30;;
68923;SDS011;55961;52.156;20.942;2023-01-05T14:00:32;7.50;;;0.60;;
68923;SDS011;55961;52.156;20.942;2023-01-05T14:03:04;9.95;;;1.13;;
68923;SDS011;55961;52.156;20.942;2023-01-05T14:08:25;5.53;;;1.05;;
68923;SDS011;55961;52.156;20.942;2023-01-05T14:11:06;4.93;;;0.80;;
68923;SDS011;55961;52.156;20.942;2023-01-05T14:13:44;4.77;;;0.70;;
68923;SDS011;55961;52.156;20.942;2023-01-05T14:27:13;10.07;;;1.47;;
68923;SDS011;55961;52.156;20.942;2023-01-05T14:32:25;3.40;;;1.33;;
68923;SDS011;55961;52.156;20.942;2023-01-05T14:34:52;7.63;;;2.08;;
68923;SDS011;55961;52.156;20.942;2023-01-05T14:40:00;5.70;;;1.03;;
68923;SDS011;55961;52.156;20.942;2023-01-05T14:42:38;6.60;;;1.50;;
68923;SDS011;55961;52.156;20.942;2023-01-05T14:45:05;3.97;;;1.23;;
68923;SDS011;55961;52.156;20.942;2023-01-05T14:47:46;4.68;;;1.40;;
68923;SDS011;55961;52.156;20.942;2023-01-05T14:53:03;5.97;;;1.80;;
68923;SDS011;55961;52.156;20.942;2023-01-05T14:58:01;7.43;;;1.40;;
68923;SDS011;55961;52.156;20.942;2023-01-05T15:00:51;6.00;;;1.05;;
68923;SDS011;55961;52.156;20.942;2023-01-05T15:03:33;5.35;;;1.70;;
68923;SDS011;55961;52.156;20.942;2023-01-05T15:06:17;6.10;;;1.40;;
68923;SDS011;55961;52.156;20.942;2023-01-05T15:14:20;5.70;;;1.00;;
68923;SDS011;55961;52.156;20.942;2023-01-05T15:25:44;8.85;;;2.85;;
68923;SDS011;55961;52.156;20.942;2023-01-05T15:33:22;5.60;;;2.03;;
68923;SDS011;55961;52.156;20.942;2023-01-05T15:36:09;7.35;;;2.05;;
68923;SDS011;55961;52.156;20.942;2023-01-05T15:38:43;5.32;;;1.58;;
68923;SDS011;55961;52.156;20.942;2023-01-05T15:41:11;7.97;;;2.58;;
68923;SDS011;55961;52.156;20.942;2023-01-05T15:43:39;11.40;;;2.80;;
68923;SDS011;55961;52.156;20.942;2023-01-05T15:46:07;6.00;;;2.00;;
68923;SDS011;55961;52.156;20.942;2023-01-05T15:51:05;4.53;;;1.77;;
68923;SDS011;55961;52.156;20.942;2023-01-05T15:56:03;6.38;;;2.20;;
68923;SDS011;55961;52.156;20.942;2023-01-05T15:58:41;9.60;;;4.20;;
68923;SDS011;55961;52.156;20.942;2023-01-05T16:01:10;8.73;;;3.92;;
68923;SDS011;55961;52.156;20.942;2023-01-05T16:03:39;8.80;;;2.67;;
68923;SDS011;55961;52.156;20.942;2023-01-05T16:06:42;5.93;;;2.55;;
68923;SDS011;55961;52.156;20.942;2023-01-05T16:09:08;18.13;;;4.55;;
68923;SDS011;55961;52.156;20.942;2023-01-05T16:11:38;9.20;;;3.27;;
68923;SDS011;55961;52.156;20.942;2023-01-05T16:14:26;7.05;;;2.92;;
68923;SDS011;55961;52.156;20.942;2023-01-05T16:16:55;9.82;;;3.25;;
68923;SDS011;55961;52.156;20.942;2023-01-05T16:19:44;11.18;;;3.70;;
68923;SDS011;55961;52.156;20.942;2023-01-05T16:22:16;6.78;;;3.38;;
68923;SDS011;55961;52.156;20.942;2023-01-05T16:27:37;7.03;;;2.08;;
68923;SDS011;55961;52.156;20.942;2023-01-05T16:32:39;8.90;;;2.10;;
68923;SDS011;55961;52.156;20.942;2023-01-05T16:43:22;10.05;;;5.15;;
68923;SDS011;55961;52.156;20.942;2023-01-05T16:45:55;9.73;;;5.20;;
68923;SDS011;55961;52.156;20.942;2023-01-05T16:51:02;10.27;;;3.40;;
68923;SDS011;55961;52.156;20.942;2023-01-05T16:53:29;9.07;;;3.03;;
68923;SDS011;55961;52.156;20.942;2023-01-05T16:55:55;11.02;;;3.97;;
68923;SDS011;55961;52.156;20.942;2023-01-05T17:00:59;11.38;;;3.30;;
68923;SDS011;55961;52.156;20.942;2023-01-05T17:03:45;25.53;;;7.70;;
68923;SDS011;55961;52.156;20.942;2023-01-05T17:08:46;15.00;;;4.40;;
68923;SDS011;55961;52.156;20.942;2023-01-05T17:11:12;14.57;;;6.50;;
68923;SDS011;55961;52.156;20.942;2023-01-05T17:13:43;6.20;;;2.53;;
68923;SDS011;55961;52.156;20.942;2023-01-05T17:16:12;7.57;;;3.35;;
68923;SDS011;55961;52.156;20.942;2023-01-05T17:18:39;10.10;;;4.53;;
68923;SDS011;55961;52.156;20.942;2023-01-05T17:21:05;7.10;;;3.03;;
68923;SDS011;55961;52.156;20.942;2023-01-05T17:23:34;9.37;;;2.10;;
68923;SDS011;55961;52.156;20.942;2023-01-05T17:26:08;7.97;;;2.58;;
68923;SDS011;55961;52.156;20.942;2023-01-05T17:28:36;9.50;;;4.45;;
68923;SDS011;55961;52.156;20.942;2023-01-05T17:31:02;6.82;;;1.98;;
68923;SDS011;55961;52.156;20.942;2023-01-05T17:33:29;5.60;;;2.63;;
68923;SDS011;55961;52.156;20.942;2023-01-05T17:35:54;9.43;;;2.33;;
68923;SDS011;55961;52.156;20.942;2023-01-05T17:38:21;6.00;;;2.80;;
68923;SDS011;55961;52.156;20.942;2023-01-05T17:40:46;14.52;;;6.90;;
68923;SDS011;55961;52.156;20.942;2023-01-05T17:43:13;5.47;;;2.10;;
68923;SDS011;55961;52.156;20.942;2023-01-05T17:45:40;8.80;;;2.53;;
68923;SDS011;55961;52.156;20.942;2023-01-05T17:48:08;8.80;;;3.97;;
68923;SDS011;55961;52.156;20.942;2023-01-05T17:50:34;7.50;;;2.85;;
68923;SDS011;55961;52.156;20.942;2023-01-05T17:53:01;8.60;;;3.50;;
68923;SDS011;55961;52.156;20.942;2023-01-05T17:55:28;6.82;;;2.25;;
68923;SDS011;55961;52.156;20.942;2023-01-05T17:57:55;5.85;;;2.35;;
68923;SDS011;55961;52.156;20.942;2023-01-05T18:00:22;6.27;;;2.07;;
68923;SDS011;55961;52.156;20.942;2023-01-05T18:02:50;3.83;;;1.27;;
68923;SDS011;55961;52.156;20.942;2023-01-05T18:05:17;6.65;;;2.33;;
68923;SDS011;55961;52.156;20.942;2023-01-05T18:07:43;4.75;;;1.60;;